createdAt,value
2019-05-10T00:00:08.768Z,66.90
2019-05-10T00:02:55.381Z,67.20
2019-05-10T00:05:42.127Z,67.00
2019-05-10T00:08:29.000Z,66.90
2019-05-10T00:11:05.816Z,67.10
2019-05-10T00:13:37.700Z,67.90
2019-05-10T00:16:06.163Z,67.20
2019-05-10T00:18:34.692Z,67.10
2019-05-10T00:21:03.316Z,67.00
2019-05-10T00:23:31.783Z,66.80
2019-05-10T00:26:00.288Z,66.20
2019-05-10T00:28:28.730Z,66.20
2019-05-10T00:30:57.213Z,66.20
2019-05-10T00:33:25.731Z,66.60
2019-05-10T00:35:54.206Z,66.70
2019-05-10T00:38:22.659Z,66.90
2019-05-10T00:40:51.175Z,67.00
2019-05-10T00:43:19.684Z,67.10
2019-05-10T00:45:48.225Z,67.00
2019-05-10T00:48:16.672Z,67.10
2019-05-10T00:50:45.142Z,67.30
2019-05-10T00:53:13.680Z,67.40
2019-05-10T00:55:42.252Z,67.40
2019-05-10T00:58:10.995Z,67.20
2019-05-10T01:00:39.499Z,66.70
2019-05-10T01:03:07.983Z,66.40
2019-05-10T01:05:36.431Z,66.70
2019-05-10T01:08:04.954Z,66.40
2019-05-10T01:10:33.391Z,66.80
2019-05-10T01:13:01.850Z,66.70
2019-05-10T01:15:30.288Z,66.80
2019-05-10T01:17:58.833Z,66.30
2019-05-10T01:20:27.339Z,66.50
2019-05-10T01:22:55.964Z,66.00
2019-05-10T01:25:34.869Z,66.00
2019-05-10T01:27:54.595Z,65.90
2019-05-10T01:30:23.043Z,65.80
2019-05-10T01:32:51.567Z,65.80
2019-05-10T01:35:20.011Z,65.70
2019-05-10T01:37:48.476Z,65.80
2019-05-10T01:40:17.054Z,65.80
2019-05-10T01:42:45.515Z,65.80
2019-05-10T01:45:14.396Z,66.10
2019-05-10T01:47:42.855Z,66.10
2019-05-10T01:50:11.632Z,66.20
2019-05-10T01:52:40.112Z,66.10
2019-05-10T01:55:08.691Z,66.20
2019-05-10T01:57:37.455Z,66.00
2019-05-10T02:00:08.524Z,66.00
2019-05-10T02:02:37.006Z,65.70
2019-05-10T02:05:06.295Z,65.90
2019-05-10T02:07:34.752Z,65.70
2019-05-10T02:10:06.891Z,65.60
2019-05-10T02:12:35.346Z,65.50
2019-05-10T02:15:05.267Z,65.30
2019-05-10T02:17:33.727Z,65.20
2019-05-10T02:20:02.641Z,65.30
2019-05-10T02:22:31.155Z,65.40
2019-05-10T02:24:59.607Z,66.00
2019-05-10T02:27:28.043Z,66.20
2019-05-10T02:29:56.499Z,66.20
2019-05-10T02:32:24.953Z,66.30
2019-05-10T02:34:53.412Z,66.70
2019-05-10T02:37:22.162Z,66.70
2019-05-10T02:39:50.623Z,66.90
2019-05-10T02:42:19.052Z,67.00
2019-05-10T02:44:47.620Z,67.10
2019-05-10T02:47:16.060Z,67.20
2019-05-10T02:49:44.530Z,67.20
2019-05-10T02:52:13.048Z,67.30
2019-05-10T02:54:42.281Z,67.20
2019-05-10T02:57:12.470Z,67.80
2019-05-10T02:59:41.590Z,67.10
2019-05-10T03:02:10.033Z,67.80
2019-05-10T03:04:38.514Z,67.10
2019-05-10T03:07:07.495Z,67.00
2019-05-10T03:09:36.160Z,66.90
2019-05-10T03:12:19.639Z,66.90
2019-05-10T03:14:51.180Z,66.40
2019-05-10T03:17:20.234Z,66.40
2019-05-10T03:19:51.772Z,66.20
2019-05-10T03:22:22.165Z,66.00
2019-05-10T03:24:50.972Z,65.90
2019-05-10T03:27:19.486Z,66.00
2019-05-10T03:29:48.780Z,65.90
2019-05-10T03:32:17.380Z,65.80
2019-05-10T03:34:45.911Z,65.90
2019-05-10T03:37:14.779Z,65.70
2019-05-10T03:39:43.316Z,65.70
2019-05-10T03:42:11.827Z,65.60
2019-05-10T03:44:40.564Z,65.70
2019-05-10T03:47:09.012Z,65.80
2019-05-10T03:49:37.472Z,65.90
2019-05-10T03:52:05.948Z,66.80
2019-05-10T03:54:34.522Z,66.20
2019-05-10T03:57:13.186Z,66.30
2019-05-10T03:59:33.225Z,66.30
2019-05-10T04:02:01.684Z,66.70
2019-05-10T04:04:30.213Z,66.70
2019-05-10T04:06:59.148Z,66.70
2019-05-10T04:09:27.587Z,66.60
2019-05-10T04:11:56.051Z,66.70
2019-05-10T04:14:24.495Z,66.90
2019-05-10T04:16:53.037Z,67.00
2019-05-10T04:19:21.542Z,67.00
2019-05-10T04:21:50.012Z,67.00
2019-05-10T04:24:18.520Z,67.10
2019-05-10T04:26:46.986Z,66.80
2019-05-10T04:29:15.455Z,66.80
2019-05-10T04:31:43.960Z,67.00
2019-05-10T04:34:12.422Z,67.10
2019-05-10T04:36:40.951Z,67.10
2019-05-10T04:39:09.459Z,66.80
2019-05-10T04:41:37.920Z,66.80
2019-05-10T04:44:06.364Z,66.30
2019-05-10T04:46:34.827Z,66.20
2019-05-10T04:49:03.390Z,66.30
2019-05-10T04:51:31.963Z,66.40
2019-05-10T04:54:00.399Z,66.30
2019-05-10T04:56:28.890Z,66.30
2019-05-10T04:58:57.331Z,66.40
2019-05-10T05:01:25.792Z,66.30
2019-05-10T05:03:54.231Z,65.90
2019-05-10T05:06:22.693Z,66.00
2019-05-10T05:08:51.151Z,65.60
2019-05-10T05:11:19.592Z,66.00
2019-05-10T05:13:49.253Z,65.90
2019-05-10T05:16:17.692Z,65.50
2019-05-10T05:18:46.215Z,66.10
2019-05-10T05:21:14.943Z,66.80
2019-05-10T05:23:43.475Z,66.30
2019-05-10T05:26:11.915Z,66.90
2019-05-10T05:28:40.380Z,65.80
2019-05-10T05:31:08.819Z,65.40
2019-05-10T05:33:37.280Z,65.50
2019-05-10T05:36:05.771Z,65.40
2019-05-10T05:38:34.232Z,65.40
2019-05-10T05:41:02.671Z,64.90
2019-05-10T05:43:31.135Z,64.80
2019-05-10T05:46:00.271Z,64.80
2019-05-10T05:48:40.099Z,64.40
2019-05-10T05:50:58.982Z,64.30
2019-05-10T05:53:27.464Z,64.50
2019-05-10T05:55:55.905Z,64.30
2019-05-10T05:58:27.170Z,64.10
2019-05-10T06:00:54.812Z,63.80
2019-05-10T06:03:27.752Z,64.00
2019-05-10T06:05:53.975Z,63.80
2019-05-10T06:08:24.844Z,63.70
2019-05-10T06:10:57.906Z,63.30
2019-05-10T06:13:29.338Z,62.90
2019-05-10T06:15:53.206Z,63.00
2019-05-10T06:18:21.739Z,62.50
2019-05-10T06:20:50.179Z,62.10
2019-05-10T06:23:18.657Z,62.60
2019-05-10T06:25:47.159Z,63.30
2019-05-10T06:28:26.349Z,62.40
2019-05-10T06:30:45.870Z,62.60
2019-05-10T06:33:14.390Z,62.00
2019-05-10T06:35:42.839Z,61.60
2019-05-10T06:38:11.295Z,61.50
2019-05-10T06:40:46.757Z,60.00
2019-05-10T06:43:13.416Z,59.60
2019-05-10T06:45:40.107Z,59.60
2019-05-10T06:48:08.566Z,59.80
2019-05-10T06:50:37.019Z,59.50
2019-05-10T06:53:10.962Z,59.60
2019-05-10T06:55:35.667Z,60.40
2019-05-10T06:58:04.115Z,60.10
2019-05-10T07:00:37.882Z,60.30
2019-05-10T07:03:02.739Z,58.50
2019-05-10T07:05:31.201Z,58.60
2019-05-10T07:08:13.179Z,58.50
2019-05-10T07:10:33.672Z,57.50
2019-05-10T07:13:03.774Z,57.60
2019-05-10T07:15:30.187Z,57.70
2019-05-10T07:17:58.655Z,57.40
2019-05-10T07:20:29.522Z,57.40
2019-05-10T07:23:16.656Z,57.40
2019-05-10T07:25:46.724Z,56.40
2019-05-10T07:28:17.278Z,56.80
2019-05-10T07:30:45.619Z,56.40
2019-05-10T07:33:14.092Z,56.30
2019-05-10T07:35:42.541Z,55.70
2019-05-10T07:38:11.062Z,55.10
2019-05-10T07:40:39.519Z,54.70
2019-05-10T07:43:08.302Z,53.80
2019-05-10T07:45:36.768Z,52.70
2019-05-10T07:48:08.149Z,52.30
2019-05-10T07:50:35.522Z,50.90
2019-05-10T07:53:04.043Z,51.10
2019-05-10T07:55:32.640Z,51.20
2019-05-10T07:58:05.029Z,51.00
2019-05-10T08:00:31.335Z,51.30
2019-05-10T08:03:11.816Z,49.40
2019-05-10T08:05:30.151Z,48.90
2019-05-10T08:07:58.989Z,47.00
2019-05-10T08:10:28.994Z,47.20
2019-05-10T08:12:59.557Z,47.80
2019-05-10T08:15:30.637Z,46.80
2019-05-10T08:17:58.516Z,46.90
2019-05-10T08:20:42.341Z,46.20
2019-05-10T08:22:57.375Z,46.80
2019-05-10T08:25:28.955Z,47.40
2019-05-10T08:27:56.021Z,46.80
2019-05-10T08:30:36.250Z,44.70
2019-05-10T08:33:09.318Z,44.30
2019-05-10T08:35:36.729Z,42.90
2019-05-10T08:38:05.903Z,42.80
2019-05-10T08:40:37.855Z,42.10
2019-05-10T08:43:08.514Z,40.40
2019-05-10T08:45:38.690Z,41.50
2019-05-10T08:48:07.135Z,42.00
2019-05-10T08:50:49.676Z,44.20
2019-05-10T08:53:11.117Z,44.30
2019-05-10T08:55:36.348Z,45.30
2019-05-10T08:58:05.355Z,45.90
2019-05-10T09:00:45.599Z,45.20
2019-05-10T09:03:09.522Z,44.40
2019-05-10T09:05:35.145Z,42.90
2019-05-10T09:08:05.831Z,41.20
2019-05-10T09:10:34.316Z,40.10
2019-05-10T09:13:03.478Z,40.60
2019-05-10T09:15:33.047Z,41.60
2019-05-10T09:18:04.301Z,39.80
2019-05-10T09:20:32.134Z,39.40
2019-05-10T09:23:02.364Z,39.10
2019-05-10T09:25:33.611Z,38.80
2019-05-10T09:28:04.520Z,37.70
2019-05-10T09:30:35.561Z,37.20
2019-05-10T09:33:08.439Z,37.00
2019-05-10T09:35:38.916Z,35.50
2019-05-10T09:38:05.372Z,35.40
2019-05-10T09:40:33.918Z,34.80
2019-05-10T09:43:05.202Z,34.50
2019-05-10T09:45:32.964Z,32.90
2019-05-10T09:48:02.447Z,33.20
2019-05-10T09:50:41.365Z,34.40
2019-05-10T09:53:01.517Z,34.30
2019-05-10T09:55:30.108Z,35.70
2019-05-10T09:57:58.559Z,35.60
2019-05-10T10:00:37.713Z,33.50
2019-05-10T10:03:07.932Z,34.30
2019-05-10T10:05:39.763Z,35.10
2019-05-10T10:08:09.025Z,35.40
2019-05-10T10:10:37.144Z,34.90
2019-05-10T10:13:13.396Z,34.30
2019-05-10T10:15:37.254Z,33.90
2019-05-10T10:18:06.308Z,32.80
2019-05-10T10:20:43.307Z,32.80
2019-05-10T10:23:07.196Z,32.70
2019-05-10T10:25:40.595Z,32.90
2019-05-10T10:28:08.264Z,33.20
2019-05-10T10:30:37.388Z,31.40
2019-05-10T10:33:11.254Z,32.60
2019-05-10T10:35:37.768Z,31.70
2019-05-10T10:38:07.995Z,30.60
2019-05-10T10:40:44.146Z,29.70
2019-05-10T10:43:07.696Z,29.40
2019-05-10T10:45:37.660Z,30.40
2019-05-10T10:48:08.448Z,30.40
2019-05-10T10:50:36.755Z,31.70
2019-05-10T10:53:07.779Z,31.00
2019-05-10T10:55:37.841Z,30.10
2019-05-10T10:58:07.340Z,31.10
2019-05-10T11:00:38.852Z,31.40
2019-05-10T11:03:06.881Z,30.40
2019-05-10T11:05:35.492Z,30.10
2019-05-10T11:08:04.015Z,31.90
2019-05-10T11:10:33.018Z,30.40
2019-05-10T11:13:07.986Z,30.70
2019-05-10T11:15:35.943Z,30.80
2019-05-10T11:18:02.005Z,30.00
2019-05-10T11:20:31.760Z,28.80
2019-05-10T11:23:00.532Z,28.30
2019-05-10T11:25:29.129Z,28.60
2019-05-10T11:27:59.270Z,28.10
2019-05-10T11:30:27.890Z,29.00
2019-05-10T11:32:56.751Z,29.20
2019-05-10T11:35:30.717Z,28.20
2019-05-10T11:37:55.418Z,28.30
2019-05-10T11:40:30.784Z,27.70
2019-05-10T11:42:54.218Z,27.60
2019-05-10T11:45:26.076Z,27.90
2019-05-10T11:47:58.729Z,27.90
2019-05-10T11:50:31.303Z,28.50
2019-05-10T11:52:53.810Z,29.40
2019-05-10T11:55:22.273Z,30.30
2019-05-10T11:58:01.901Z,31.00
2019-05-10T12:00:28.453Z,31.20
2019-05-10T12:03:12.527Z,33.30
2019-05-10T12:05:26.440Z,33.70
2019-05-10T12:07:54.727Z,34.40
2019-05-10T12:10:25.722Z,32.70
2019-05-10T12:13:08.560Z,32.60
2019-05-10T12:15:25.682Z,31.30
2019-05-10T12:17:59.294Z,31.40
2019-05-10T12:20:38.972Z,30.80
2019-05-10T12:22:54.728Z,30.70
2019-05-10T12:25:41.917Z,29.70
2019-05-10T12:27:53.590Z,29.60
2019-05-10T12:30:22.208Z,29.60
2019-05-10T12:32:56.108Z,29.30
2019-05-10T12:35:21.384Z,28.10
2019-05-10T12:37:54.240Z,27.70
2019-05-10T12:40:23.854Z,28.80
2019-05-10T12:42:50.982Z,29.30
2019-05-10T12:45:23.034Z,28.00
2019-05-10T12:47:51.769Z,27.00
2019-05-10T12:50:20.245Z,27.40
2019-05-10T12:52:50.525Z,26.00
2019-05-10T12:55:18.970Z,26.10
2019-05-10T12:57:47.402Z,26.50
2019-05-10T13:00:16.395Z,26.30
2019-05-10T13:02:51.460Z,27.20
2019-05-10T13:05:15.974Z,25.40
2019-05-10T13:07:44.730Z,25.10
2019-05-10T13:10:13.315Z,25.90
2019-05-10T13:12:44.530Z,26.30
2019-05-10T13:15:12.579Z,27.50
2019-05-10T13:17:43.996Z,27.10
2019-05-10T13:20:12.111Z,27.70
2019-05-10T13:22:40.620Z,28.10
2019-05-10T13:25:09.509Z,28.10
2019-05-10T13:27:38.352Z,28.10
2019-05-10T13:30:09.287Z,26.90
2019-05-10T13:32:37.861Z,25.80
2019-05-10T13:35:06.854Z,25.10
2019-05-10T13:37:35.457Z,25.90
2019-05-10T13:40:08.044Z,24.40
2019-05-10T13:42:42.624Z,25.10
2019-05-10T13:45:06.634Z,24.90
2019-05-10T13:47:35.139Z,25.20
2019-05-10T13:50:05.227Z,26.00
2019-05-10T13:52:37.734Z,25.40
2019-05-10T13:55:07.787Z,25.20
2019-05-10T13:57:36.516Z,26.40
2019-05-10T14:00:08.316Z,27.20
2019-05-10T14:02:36.846Z,27.40
2019-05-10T14:05:06.215Z,27.40
2019-05-10T14:07:34.652Z,27.30
2019-05-10T14:10:03.429Z,27.70
2019-05-10T14:12:31.889Z,27.50
2019-05-10T14:15:08.921Z,26.80
2019-05-10T14:17:30.523Z,26.80
2019-05-10T14:19:58.963Z,27.20
2019-05-10T14:22:27.399Z,27.70
2019-05-10T14:24:59.193Z,28.00
2019-05-10T14:27:29.975Z,28.70
2019-05-10T14:29:56.244Z,29.70
2019-05-10T14:32:24.702Z,29.70
2019-05-10T14:34:53.130Z,29.50
2019-05-10T14:37:21.742Z,29.20
2019-05-10T14:39:50.268Z,28.70
2019-05-10T14:42:23.933Z,28.80
2019-05-10T14:44:49.091Z,29.30
2019-05-10T14:47:17.932Z,29.70
2019-05-10T14:49:47.192Z,29.40
2019-05-10T14:52:16.606Z,29.60
2019-05-10T14:54:49.921Z,29.20
2019-05-10T14:57:15.406Z,29.30
2019-05-10T14:59:43.843Z,29.60
2019-05-10T15:02:16.869Z,29.50
2019-05-10T15:04:45.264Z,30.00
2019-05-10T15:07:14.177Z,29.70
2019-05-10T15:09:42.840Z,30.30
2019-05-10T15:12:16.407Z,30.40
2019-05-10T15:14:41.519Z,29.90
2019-05-10T15:17:09.979Z,30.40
2019-05-10T15:19:38.407Z,30.60
2019-05-10T15:22:06.866Z,30.70
2019-05-10T15:24:35.656Z,30.80
2019-05-10T15:27:04.107Z,30.90
2019-05-10T15:29:32.544Z,31.40
2019-05-10T15:32:00.994Z,31.00
2019-05-10T15:34:29.422Z,30.60
2019-05-10T15:37:02.496Z,30.90
2019-05-10T15:39:30.113Z,31.50
2019-05-10T15:41:59.218Z,31.40
2019-05-10T15:44:31.444Z,31.10
2019-05-10T15:46:59.949Z,31.50
2019-05-10T15:49:28.699Z,31.60
2019-05-10T15:52:16.441Z,32.00
2019-05-10T15:54:27.512Z,31.50
2019-05-10T15:56:56.146Z,31.20
2019-05-10T15:59:24.819Z,31.00
2019-05-10T16:01:53.383Z,31.10
2019-05-10T16:04:21.831Z,31.30
2019-05-10T16:06:50.348Z,30.40
2019-05-10T16:09:19.384Z,30.10
2019-05-10T16:11:48.178Z,30.00
2019-05-10T16:14:16.679Z,29.30
2019-05-10T16:16:45.125Z,29.40
2019-05-10T16:19:18.576Z,29.10
2019-05-10T16:21:46.547Z,29.30
2019-05-10T16:24:14.005Z,29.10
2019-05-10T16:26:42.464Z,29.40
2019-05-10T16:29:11.098Z,29.70
2019-05-10T16:31:39.694Z,30.30
2019-05-10T16:34:08.163Z,31.30
2019-05-10T16:36:36.671Z,31.90
2019-05-10T16:39:07.140Z,31.20
2019-05-10T16:41:35.660Z,30.10
2019-05-10T16:44:04.110Z,29.70
2019-05-10T16:46:32.547Z,28.90
2019-05-10T16:49:01.304Z,28.90
2019-05-10T16:51:29.886Z,30.70
2019-05-10T16:53:58.332Z,33.90
2019-05-10T16:56:26.849Z,34.60
2019-05-10T16:58:55.314Z,35.10
2019-05-10T17:01:27.453Z,35.70
2019-05-10T17:03:59.924Z,36.00
2019-05-10T17:06:24.518Z,36.20
2019-05-10T17:08:53.078Z,36.60
2019-05-10T17:11:21.595Z,36.80
2019-05-10T17:13:50.126Z,36.40
2019-05-10T17:16:18.998Z,36.60
2019-05-10T17:18:49.646Z,36.40
2019-05-10T17:21:17.828Z,36.50
2019-05-10T17:23:48.388Z,36.50
2019-05-10T17:26:16.539Z,37.10
2019-05-10T17:28:45.024Z,37.40
2019-05-10T17:31:13.450Z,37.40
2019-05-10T17:33:44.144Z,37.90
2019-05-10T17:36:14.524Z,37.90
2019-05-10T17:38:47.468Z,38.10
2019-05-10T17:41:13.163Z,37.90
2019-05-10T17:43:41.623Z,37.90
2019-05-10T17:46:12.802Z,37.20
2019-05-10T17:48:40.713Z,37.90
2019-05-10T17:51:11.478Z,38.50
2019-05-10T17:53:39.927Z,39.10
2019-05-10T17:56:08.836Z,39.40
2019-05-10T17:58:37.296Z,39.60
2019-05-10T18:01:05.742Z,39.80
2019-05-10T18:03:34.194Z,40.40
2019-05-10T18:06:03.041Z,40.90
2019-05-10T18:08:31.536Z,41.30
2019-05-10T18:11:04.174Z,41.40
2019-05-10T18:13:30.151Z,41.70
2019-05-10T18:15:58.610Z,41.70
2019-05-10T18:18:27.063Z,41.80
2019-05-10T18:20:55.604Z,41.80
2019-05-10T18:23:24.047Z,42.10
2019-05-10T18:25:58.479Z,42.00
2019-05-10T18:28:22.759Z,42.10
2019-05-10T18:30:51.250Z,42.20
2019-05-10T18:33:19.683Z,42.40
2019-05-10T18:35:52.875Z,42.50
2019-05-10T18:38:18.895Z,42.80
2019-05-10T18:40:47.434Z,43.20
2019-05-10T18:43:15.963Z,43.20
2019-05-10T18:45:44.413Z,43.40
2019-05-10T18:48:12.849Z,43.70
2019-05-10T18:50:45.241Z,43.80
2019-05-10T18:53:11.827Z,43.70
2019-05-10T18:55:40.347Z,43.90
2019-05-10T18:58:08.780Z,44.00
2019-05-10T19:00:40.103Z,44.30
2019-05-10T19:03:07.587Z,44.30
2019-05-10T19:05:36.093Z,44.60
2019-05-10T19:08:06.005Z,44.70
2019-05-10T19:10:35.229Z,45.00
2019-05-10T19:13:05.606Z,45.10
2019-05-10T19:15:34.031Z,45.30
2019-05-10T19:18:02.522Z,45.30
2019-05-10T19:20:31.038Z,45.80
2019-05-10T19:22:59.463Z,45.80
2019-05-10T19:25:27.935Z,46.00
2019-05-10T19:27:56.355Z,46.20
2019-05-10T19:30:24.883Z,46.20
2019-05-10T19:32:56.229Z,46.40
2019-05-10T19:35:23.791Z,46.30
2019-05-10T19:37:52.324Z,46.40
2019-05-10T19:40:20.757Z,46.50
2019-05-10T19:42:49.673Z,46.40
2019-05-10T19:45:21.030Z,46.60
2019-05-10T19:47:49.849Z,46.50
2019-05-10T19:50:24.193Z,46.40
2019-05-10T19:52:49.081Z,46.60
2019-05-10T19:55:19.368Z,46.70
2019-05-10T19:57:49.446Z,46.70
2019-05-10T20:00:19.524Z,46.80
2019-05-10T20:02:48.059Z,46.80
2019-05-10T20:05:16.669Z,46.90
2019-05-10T20:07:46.465Z,46.80
2019-05-10T20:10:15.597Z,46.60
2019-05-10T20:12:44.194Z,46.50
2019-05-10T20:15:12.888Z,46.60
2019-05-10T20:17:41.389Z,46.30
2019-05-10T20:20:10.158Z,47.00
2019-05-10T20:22:38.671Z,46.40
2019-05-10T20:25:08.252Z,46.60
2019-05-10T20:27:36.715Z,46.40
2019-05-10T20:30:06.202Z,46.40
2019-05-10T20:32:34.759Z,46.40
2019-05-10T20:35:03.564Z,46.50
2019-05-10T20:37:32.019Z,46.50
2019-05-10T20:40:00.466Z,46.40
2019-05-10T20:42:28.923Z,47.10
2019-05-10T20:45:06.625Z,46.40
2019-05-10T20:47:27.620Z,46.30
2019-05-10T20:49:56.056Z,46.00
2019-05-10T20:52:24.523Z,46.10
2019-05-10T20:54:53.073Z,46.20
2019-05-10T20:57:21.638Z,46.00
2019-05-10T20:59:50.150Z,46.00
2019-05-10T21:02:18.630Z,46.00
2019-05-10T21:04:47.119Z,45.90
2019-05-10T21:07:15.567Z,45.90
2019-05-10T21:09:44.004Z,45.80
2019-05-10T21:12:12.490Z,45.60
2019-05-10T21:14:40.992Z,45.50
2019-05-10T21:17:09.525Z,45.40
2019-05-10T21:19:38.040Z,45.30
2019-05-10T21:22:06.535Z,45.30
2019-05-10T21:24:34.983Z,45.10
2019-05-10T21:27:03.430Z,45.00
2019-05-10T21:29:31.930Z,45.10
2019-05-10T21:32:00.427Z,44.90
2019-05-10T21:34:29.061Z,45.00
2019-05-10T21:36:57.946Z,45.10
2019-05-10T21:39:26.439Z,45.00
2019-05-10T21:41:54.927Z,45.20
2019-05-10T21:44:23.384Z,45.20
2019-05-10T21:46:53.824Z,45.10
2019-05-10T21:49:22.067Z,45.10
2019-05-10T21:51:50.540Z,45.00
2019-05-10T21:54:19.011Z,45.10
2019-05-10T21:56:47.469Z,45.20
2019-05-10T21:59:15.918Z,45.20
2019-05-10T22:01:44.372Z,45.40
2019-05-10T22:04:12.855Z,45.50
2019-05-10T22:06:41.675Z,45.40
2019-05-10T22:09:10.721Z,45.50
2019-05-10T22:11:39.208Z,45.50
2019-05-10T22:14:07.729Z,45.50
2019-05-10T22:16:36.174Z,45.20
2019-05-10T22:19:04.698Z,45.60
2019-05-10T22:21:33.146Z,46.20
2019-05-10T22:24:01.600Z,46.00
2019-05-10T22:26:30.035Z,46.10
2019-05-10T22:28:58.493Z,46.00
2019-05-10T22:31:26.943Z,46.30
2019-05-10T22:33:55.529Z,47.20
2019-05-10T22:36:24.059Z,48.10
2019-05-10T22:39:05.759Z,48.20
2019-05-10T22:41:22.727Z,49.40
2019-05-10T22:43:51.167Z,50.30
2019-05-10T22:46:19.699Z,50.00
2019-05-10T22:48:48.143Z,49.80
2019-05-10T22:51:16.662Z,50.50
2019-05-10T22:53:53.259Z,50.90
2019-05-10T22:56:15.268Z,51.90
2019-05-10T22:58:43.700Z,52.10
2019-05-10T23:01:12.168Z,52.70
2019-05-10T23:03:40.676Z,53.10
2019-05-10T23:06:09.115Z,53.50
2019-05-10T23:08:37.559Z,54.20
2019-05-10T23:11:06.166Z,54.60
2019-05-10T23:13:34.607Z,55.00
2019-05-10T23:16:03.070Z,54.70
2019-05-10T23:18:31.520Z,54.10
2019-05-10T23:20:59.975Z,54.30
2019-05-10T23:23:28.433Z,54.50
2019-05-10T23:25:56.951Z,54.70
2019-05-10T23:28:25.387Z,54.80
2019-05-10T23:30:53.843Z,54.20
2019-05-10T23:33:22.272Z,53.90
2019-05-10T23:35:50.732Z,54.90
2019-05-10T23:38:19.161Z,55.20
2019-05-10T23:40:47.639Z,55.30
2019-05-10T23:43:16.124Z,55.40
2019-05-10T23:45:44.573Z,55.50
2019-05-10T23:48:13.075Z,55.90
2019-05-10T23:50:41.534Z,56.10
2019-05-10T23:53:09.970Z,56.00
2019-05-10T23:55:38.423Z,56.00
2019-05-10T23:58:06.862Z,55.80
